Time,TemperatureF,DewpointF,PressureIn,WindDirection,WindDirectionDegrees,WindSpeedMPH,WindSpeedGustMPH,Humidity,HourlyPrecipIn,Conditions,Clouds,dailyrainin,SolarRadiationWatts/m^2,SoftwareType,DateUTC
2013-03-06 00:12:00,28.0,27.0,-100.00,West,268,13.0,24.0,94,0.00,,,0.26,0.000000,,2013-03-06 05:12:00,
2013-03-06 00:22:00,28.0,27.0,-100.00,West,268,13.0,24.0,94,0.00,,,0.26,0.000000,,2013-03-06 05:22:00,
2013-03-06 00:32:00,28.0,27.0,-100.00,West,268,13.0,24.0,94,0.00,,,0.26,0.000000,,2013-03-06 05:32:00,
2013-03-06 00:42:00,28.0,27.0,-100.00,West,268,13.0,24.0,94,0.00,,,0.26,0.000000,,2013-03-06 05:42:00,
2013-03-06 01:12:00,28.0,27.0,-100.00,West,269,12.0,21.0,94,0.00,,,0.26,0.000000,,2013-03-06 06:12:00,
2013-03-06 01:22:00,28.0,27.0,-100.00,West,269,12.0,21.0,94,0.00,,,0.26,0.000000,,2013-03-06 06:22:00,
2013-03-06 01:32:00,28.0,27.0,-100.00,West,269,12.0,21.0,94,0.00,,,0.26,0.000000,,2013-03-06 06:32:00,
2013-03-06 01:42:00,28.0,27.0,-100.00,West,269,12.0,21.0,94,0.00,,,0.26,0.000000,,2013-03-06 06:42:00,
2013-03-06 02:11:00,28.0,27.0,-100.00,West,281,12.0,20.0,94,0.00,,,0.26,0.000000,,2013-03-06 07:11:00,
2013-03-06 02:22:00,28.0,27.0,-100.00,West,281,12.0,20.0,94,0.00,,,0.26,0.000000,,2013-03-06 07:22:00,
2013-03-06 02:32:00,28.0,27.0,-100.00,West,281,12.0,20.0,94,0.00,,,0.26,0.000000,,2013-03-06 07:32:00,
2013-03-06 02:42:00,28.0,27.0,-100.00,West,281,12.0,20.0,94,0.00,,,0.26,0.000000,,2013-03-06 07:42:00,
2013-03-06 03:11:00,28.0,27.0,-100.00,WNW,297,13.0,28.0,94,0.00,,,0.26,0.000000,,2013-03-06 08:11:00,
2013-03-06 03:21:00,28.0,27.0,-100.00,WNW,297,13.0,28.0,94,0.00,,,0.26,0.000000,,2013-03-06 08:21:00,
2013-03-06 03:32:00,28.0,27.0,-100.00,WNW,297,13.0,28.0,94,0.00,,,0.26,0.000000,,2013-03-06 08:32:00,
2013-03-06 03:42:00,28.0,27.0,-100.00,WNW,297,13.0,28.0,94,0.00,,,0.26,0.000000,,2013-03-06 08:42:00,
2013-03-06 04:12:00,28.0,27.0,-100.00,NW,305,11.0,19.0,94,0.00,,,0.26,0.000000,,2013-03-06 09:12:00,
2013-03-06 04:22:00,28.0,27.0,-100.00,NW,305,11.0,19.0,94,0.00,,,0.26,0.000000,,2013-03-06 09:22:00,
2013-03-06 04:32:00,28.0,27.0,-100.00,NW,305,11.0,19.0,94,0.00,,,0.26,0.000000,,2013-03-06 09:32:00,
2013-03-06 04:42:00,28.0,27.0,-100.00,NW,305,11.0,19.0,94,0.00,,,0.26,0.000000,,2013-03-06 09:42:00,
2013-03-06 05:11:00,29.0,27.0,-100.00,NW,316,10.0,21.0,94,0.00,,,0.26,0.000000,,2013-03-06 10:11:00,
2013-03-06 05:22:00,29.0,27.0,-100.00,NW,316,10.0,21.0,94,0.00,,,0.26,0.000000,,2013-03-06 10:22:00,
2013-03-06 05:32:00,29.0,27.0,-100.00,NW,316,10.0,21.0,94,0.00,,,0.26,0.000000,,2013-03-06 10:32:00,
2013-03-06 05:42:00,29.0,27.0,-100.00,NW,316,10.0,21.0,94,0.00,,,0.26,0.000000,,2013-03-06 10:42:00,
2013-03-06 06:11:00,28.0,26.0,-100.00,NW,321,12.0,23.0,91,0.00,,,0.26,0.000000,,2013-03-06 11:11:00,
2013-03-06 06:23:00,28.0,26.0,-100.00,NW,321,12.0,23.0,91,0.00,,,0.26,0.000000,,2013-03-06 11:23:00,
2013-03-06 06:32:00,28.0,26.0,-100.00,NW,321,12.0,23.0,91,0.00,,,0.26,0.000000,,2013-03-06 11:32:00,
2013-03-06 06:42:00,28.0,26.0,-100.00,NW,321,12.0,23.0,91,0.00,,,0.26,0.000000,,2013-03-06 11:42:00,
2013-03-06 07:12:00,27.0,24.0,-100.00,NW,326,10.0,20.0,90,0.00,,,0.26,0.000000,,2013-03-06 12:12:00,
2013-03-06 07:22:00,27.0,24.0,-100.00,NW,326,10.0,20.0,90,0.00,,,0.26,0.000000,,2013-03-06 12:22:00,
2013-03-06 07:33:00,27.0,24.0,-100.00,NW,326,10.0,20.0,90,0.00,,,0.26,0.000000,,2013-03-06 12:33:00,
2013-03-06 07:42:00,27.0,24.0,-100.00,NW,326,10.0,20.0,90,0.00,,,0.26,0.000000,,2013-03-06 12:42:00,
2013-03-06 08:12:00,28.0,25.0,-100.00,NNW,332,13.0,25.0,89,0.00,,,0.26,5.000000,,2013-03-06 13:12:00,
2013-03-06 08:22:00,28.0,25.0,-100.00,NNW,332,13.0,25.0,89,0.00,,,0.26,5.000000,,2013-03-06 13:22:00,
2013-03-06 08:32:00,28.0,25.0,-100.00,NNW,332,13.0,25.0,89,0.00,,,0.26,5.000000,,2013-03-06 13:32:00,
2013-03-06 08:42:00,28.0,25.0,-100.00,NNW,332,13.0,25.0,89,0.00,,,0.26,5.000000,,2013-03-06 13:42:00,
2013-03-06 09:11:00,28.0,25.0,-100.00,NNW,340,12.0,24.0,87,0.00,,,0.26,35.000000,,2013-03-06 14:11:00,
2013-03-06 09:22:00,28.0,25.0,-100.00,NNW,340,12.0,24.0,87,0.00,,,0.26,35.000000,,2013-03-06 14:22:00,
2013-03-06 09:32:00,28.0,25.0,-100.00,NNW,340,12.0,24.0,87,0.00,,,0.26,35.000000,,2013-03-06 14:32:00,
2013-03-06 09:42:00,28.0,25.0,-100.00,NNW,340,12.0,24.0,87,0.00,,,0.26,35.000000,,2013-03-06 14:42:00,
2013-03-06 10:12:00,28.0,25.0,-100.00,NNW,333,12.0,26.0,87,0.00,,,0.26,85.000000,,2013-03-06 15:12:00,
2013-03-06 10:22:00,28.0,25.0,-100.00,NNW,333,12.0,26.0,87,0.00,,,0.26,85.000000,,2013-03-06 15:22:00,
2013-03-06 10:32:00,28.0,25.0,-100.00,NNW,333,12.0,26.0,87,0.00,,,0.26,85.000000,,2013-03-06 15:32:00,
2013-03-06 10:42:00,28.0,25.0,-100.00,NNW,333,12.0,26.0,87,0.00,,,0.26,85.000000,,2013-03-06 15:42:00,
2013-03-06 11:12:00,29.0,25.0,-100.00,NNW,336,9.0,20.0,86,0.00,,,0.26,131.000000,,2013-03-06 16:12:00,
2013-03-06 11:21:00,29.0,25.0,-100.00,NNW,336,9.0,20.0,86,0.00,,,0.26,131.000000,,2013-03-06 16:21:00,
2013-03-06 11:32:00,29.0,25.0,-100.00,NNW,336,9.0,20.0,86,0.00,,,0.26,131.000000,,2013-03-06 16:32:00,
2013-03-06 11:42:00,29.0,25.0,-100.00,NNW,336,9.0,20.0,86,0.00,,,0.26,131.000000,,2013-03-06 16:42:00,
2013-03-06 12:11:00,30.0,26.0,-100.00,NNW,331,9.0,20.0,84,0.00,,,0.26,201.000000,,2013-03-06 17:11:00,
2013-03-06 12:22:00,30.0,26.0,-100.00,NNW,331,9.0,20.0,84,0.00,,,0.26,201.000000,,2013-03-06 17:22:00,
2013-03-06 12:32:00,30.0,26.0,-100.00,NNW,331,9.0,20.0,84,0.00,,,0.26,201.000000,,2013-03-06 17:32:00,
2013-03-06 12:42:00,30.0,26.0,-100.00,NNW,331,9.0,20.0,84,0.00,,,0.26,201.000000,,2013-03-06 17:42:00,
2013-03-06 13:29:00,31.0,26.0,-100.00,NW,326,11.0,16.0,83,0.00,,,0.26,281.000000,,2013-03-06 18:29:00,
2013-03-06 13:42:00,31.0,26.0,-100.00,NW,326,11.0,16.0,83,0.00,,,0.26,281.000000,,2013-03-06 18:42:00,
2013-03-06 14:02:00,32.0,27.0,-100.00,NW,319,9.0,18.0,82,0.00,,,0.25,318.000000,,2013-03-06 19:02:00,
2013-03-06 14:11:00,32.0,27.0,-100.00,NW,319,9.0,18.0,82,0.00,,,0.25,318.000000,,2013-03-06 19:11:00,
2013-03-06 14:22:00,32.0,27.0,-100.00,NW,319,9.0,18.0,82,0.00,,,0.25,318.000000,,2013-03-06 19:22:00,
2013-03-06 14:32:00,32.0,27.0,-100.00,NW,319,9.0,18.0,82,0.00,,,0.25,318.000000,,2013-03-06 19:32:00,
2013-03-06 14:43:00,32.0,27.0,-100.00,NW,319,9.0,18.0,82,0.00,,,0.25,318.000000,,2013-03-06 19:43:00,
2013-03-06 15:12:00,32.0,27.0,-100.00,NW,306,10.0,17.0,81,0.08,,,0.33,322.000000,,2013-03-06 20:12:00,
2013-03-06 15:22:00,32.0,27.0,-100.00,NW,306,10.0,17.0,81,0.08,,,0.33,322.000000,,2013-03-06 20:22:00,
2013-03-06 15:33:00,32.0,27.0,-100.00,NW,306,10.0,17.0,81,0.08,,,0.33,322.000000,,2013-03-06 20:33:00,
2013-03-06 15:42:00,32.0,27.0,-100.00,NW,306,10.0,17.0,81,0.08,,,0.33,322.000000,,2013-03-06 20:42:00,
2013-03-06 16:12:00,32.0,28.0,-100.00,NW,318,7.0,18.0,84,0.06,,,0.34,176.000000,,2013-03-06 21:12:00,
2013-03-06 16:22:00,32.0,28.0,-100.00,NW,318,7.0,18.0,84,0.06,,,0.34,176.000000,,2013-03-06 21:22:00,
2013-03-06 16:32:00,32.0,28.0,-100.00,NW,318,7.0,18.0,84,0.06,,,0.34,176.000000,,2013-03-06 21:32:00,
2013-03-06 16:42:00,32.0,28.0,-100.00,NW,318,7.0,18.0,84,0.06,,,0.34,176.000000,,2013-03-06 21:42:00,
2013-03-06 17:12:00,32.0,28.0,-100.00,NW,319,6.0,12.0,85,0.02,,,0.28,125.000000,,2013-03-06 22:12:00,
2013-03-06 17:22:00,32.0,28.0,-100.00,NW,319,6.0,12.0,85,0.02,,,0.28,125.000000,,2013-03-06 22:22:00,
2013-03-06 17:32:00,32.0,28.0,-100.00,NW,319,6.0,12.0,85,0.02,,,0.28,125.000000,,2013-03-06 22:32:00,
2013-03-06 17:42:00,32.0,28.0,-100.00,NW,319,6.0,12.0,85,0.02,,,0.28,125.000000,,2013-03-06 22:42:00,
2013-03-06 18:11:00,31.0,28.0,-100.00,WNW,290,8.0,16.0,89,0.01,,,0.20,49.000000,,2013-03-06 23:11:00,
2013-03-06 18:22:00,31.0,28.0,-100.00,WNW,290,8.0,16.0,89,0.01,,,0.20,49.000000,,2013-03-06 23:22:00,
2013-03-06 18:32:00,31.0,28.0,-100.00,WNW,290,8.0,16.0,89,0.01,,,0.20,49.000000,,2013-03-06 23:32:00,
2013-03-06 18:42:00,31.0,28.0,-100.00,WNW,290,8.0,16.0,89,0.01,,,0.20,49.000000,,2013-03-06 23:42:00,
2013-03-06 19:11:00,31.0,28.0,-100.00,WNW,302,7.0,11.0,90,0.00,,,0.17,10.000000,,2013-03-07 00:11:00,
2013-03-06 19:22:00,31.0,28.0,-100.00,WNW,302,7.0,11.0,90,0.00,,,0.17,10.000000,,2013-03-07 00:22:00,
2013-03-06 19:32:00,31.0,28.0,-100.00,WNW,302,7.0,11.0,90,0.00,,,0.17,10.000000,,2013-03-07 00:32:00,
2013-03-06 19:42:00,31.0,28.0,-100.00,WNW,302,7.0,11.0,90,0.00,,,0.17,10.000000,,2013-03-07 00:42:00,
2013-03-06 20:12:00,31.0,28.0,-100.00,NW,308,7.0,18.0,89,0.00,,,0.17,0.000000,,2013-03-07 01:12:00,
2013-03-06 20:22:00,31.0,28.0,-100.00,NW,308,7.0,18.0,89,0.00,,,0.17,0.000000,,2013-03-07 01:22:00,
2013-03-06 20:32:00,31.0,28.0,-100.00,NW,308,7.0,18.0,89,0.00,,,0.17,0.000000,,2013-03-07 01:32:00,
2013-03-06 20:42:00,31.0,28.0,-100.00,NW,308,7.0,18.0,89,0.00,,,0.17,0.000000,,2013-03-07 01:42:00,
2013-03-06 21:11:00,30.0,27.0,-100.00,WNW,289,5.0,17.0,90,0.00,,,0.17,0.000000,,2013-03-07 02:11:00,
2013-03-06 21:22:00,30.0,27.0,-100.00,WNW,289,5.0,17.0,90,0.00,,,0.17,0.000000,,2013-03-07 02:22:00,
2013-03-06 21:32:00,30.0,27.0,-100.00,WNW,289,5.0,17.0,90,0.00,,,0.17,0.000000,,2013-03-07 02:32:00,
2013-03-06 21:42:00,30.0,27.0,-100.00,WNW,289,5.0,17.0,90,0.00,,,0.17,0.000000,,2013-03-07 02:42:00,
2013-03-06 22:12:00,30.0,28.0,-100.00,WNW,299,7.0,16.0,91,0.00,,,0.17,0.000000,,2013-03-07 03:12:00,
2013-03-06 22:22:00,30.0,28.0,-100.00,WNW,299,7.0,16.0,91,0.00,,,0.17,0.000000,,2013-03-07 03:22:00,
2013-03-06 22:32:00,30.0,28.0,-100.00,WNW,299,7.0,16.0,91,0.00,,,0.17,0.000000,,2013-03-07 03:32:00,
2013-03-06 22:42:00,30.0,28.0,-100.00,WNW,299,7.0,16.0,91,0.00,,,0.17,0.000000,,2013-03-07 03:42:00,
2013-03-06 23:12:00,30.0,27.0,-100.00,NW,307,9.0,18.0,90,0.00,,,0.17,0.000000,,2013-03-07 04:12:00,
2013-03-06 23:22:00,30.0,27.0,-100.00,NW,307,9.0,18.0,90,0.00,,,0.17,0.000000,,2013-03-07 04:22:00,
2013-03-06 23:32:00,30.0,27.0,-100.00,NW,307,9.0,18.0,90,0.00,,,0.17,0.000000,,2013-03-07 04:32:00,
2013-03-06 23:42:00,30.0,27.0,-100.00,NW,307,9.0,18.0,90,0.00,,,0.17,0.000000,,2013-03-07 04:42:00,